Terminal Aerodrome Forecast
Issued by NWS

Home | Current Version | Previous Version | Text Only | Print | Product List | Glossary On
Versions: 1 2 3 4 5 6 7 8 9 10 11 12 13 14
000
FTAK31 PANC 311741
TAFAIL
TAF
PAIL 311741Z 3118/0118 36008KT P6SM BKN080
     FM312200 06016G22KT P6SM VCSH BKN035 OVC060
     FM010600 06015KT 6SM -SN OVC025=

USA.gov is the U.S. government's official web portal to all federal, state and local government web resources and services.